createdAt,value
2022-10-22T05:11:55.772Z,14.40
2022-10-22T05:14:24.343Z,16.20
2022-10-22T05:16:52.212Z,15.40
2022-10-22T05:19:36.840Z,12.60
2022-10-22T05:22:04.418Z,10.80
2022-10-22T05:24:32.495Z,13.43
2022-10-22T05:26:59.648Z,12.60
2022-10-22T05:29:27.051Z,15.77
2022-10-22T05:31:53.475Z,16.63
2022-10-22T05:34:20.164Z,11.82
2022-10-22T05:36:46.643Z,15.23
2022-10-22T05:39:13.293Z,11.80
2022-10-22T05:41:39.789Z,17.40
2022-10-22T05:44:06.288Z,18.45
2022-10-22T05:46:35.612Z,16.90
2022-10-22T05:49:04.592Z,14.47
2022-10-22T05:51:34.291Z,16.95
2022-10-22T05:54:02.661Z,17.77
2022-10-22T05:56:31.999Z,17.33
2022-10-22T05:58:58.825Z,14.30
2022-10-22T06:01:30.299Z,15.80
2022-10-22T06:03:59.265Z,12.75
2022-10-22T06:06:30.705Z,14.50
2022-10-22T06:09:00.803Z,16.10
2022-10-22T06:11:28.927Z,13.32
2022-10-22T06:13:58.848Z,14.17
2022-10-22T06:16:25.282Z,14.60
2022-10-22T06:18:51.715Z,14.70
2022-10-22T06:21:18.203Z,17.15
2022-10-22T06:23:44.656Z,14.15
2022-10-22T06:26:11.531Z,15.17
2022-10-22T06:28:38.688Z,15.90
2022-10-22T06:31:05.801Z,15.60
2022-10-22T06:33:34.246Z,16.33
2022-10-22T06:36:14.514Z,16.50
2022-10-22T06:38:41.405Z,14.63
2022-10-22T06:41:16.218Z,16.60
2022-10-22T06:43:49.519Z,14.38
2022-10-22T06:46:19.989Z,15.30
2022-10-22T06:48:51.871Z,14.38
2022-10-22T06:51:18.927Z,15.87
2022-10-22T06:53:45.383Z,16.17
2022-10-22T06:56:13.939Z,15.85
2022-10-22T06:58:40.566Z,15.63
2022-10-22T07:01:13.141Z,15.40
2022-10-22T07:03:40.814Z,14.50
2022-10-22T07:06:10.001Z,16.40
2022-10-22T07:08:36.801Z,16.08
2022-10-22T07:11:07.897Z,16.73
2022-10-22T07:13:34.463Z,15.63
2022-10-22T07:16:00.998Z,15.23
2022-10-22T07:18:27.498Z,15.75
2022-10-22T07:20:54.012Z,18.20
2022-10-22T07:23:20.437Z,15.63
2022-10-22T07:25:47.169Z,18.05
2022-10-22T07:28:13.801Z,17.60
2022-10-22T07:30:40.689Z,17.80
2022-10-22T07:33:07.558Z,16.35
2022-10-22T07:35:34.470Z,19.08
2022-10-22T07:38:01.270Z,14.18
2022-10-22T07:40:27.811Z,16.10
2022-10-22T07:42:54.542Z,16.50
2022-10-22T07:45:20.967Z,16.35
2022-10-22T07:47:48.086Z,16.90
2022-10-22T07:50:15.286Z,15.98
2022-10-22T07:52:42.101Z,14.03
2022-10-22T07:55:09.024Z,15.45
2022-10-22T07:57:37.150Z,14.98
2022-10-22T08:00:08.683Z,17.38
2022-10-22T08:02:35.501Z,16.42
2022-10-22T08:05:01.943Z,17.90
2022-10-22T08:07:28.455Z,14.23
2022-10-22T08:09:55.015Z,17.80
2022-10-22T08:12:21.617Z,18.95
2022-10-22T08:14:48.048Z,16.70
2022-10-22T08:17:14.718Z,17.07
2022-10-22T08:19:41.155Z,19.55
2022-10-22T08:22:08.026Z,17.60
2022-10-22T08:24:34.707Z,16.35
2022-10-22T08:27:01.127Z,16.30
2022-10-22T08:29:27.835Z,18.13
2022-10-22T08:31:54.755Z,17.60
2022-10-22T08:34:21.202Z,20.10
2022-10-22T08:36:47.735Z,20.02
2022-10-22T08:39:14.526Z,17.55
2022-10-22T08:41:59.190Z,17.27
2022-10-22T08:44:54.826Z,18.85
2022-10-22T08:47:45.983Z,18.23
2022-10-22T08:50:16.332Z,19.02
2022-10-22T08:52:44.779Z,19.88
2022-10-22T08:55:15.644Z,18.47
2022-10-22T08:58:06.102Z,22.25
2022-10-22T09:00:32.482Z,22.23
2022-10-22T09:03:20.914Z,18.65
2022-10-22T09:06:05.534Z,17.33
2022-10-22T09:08:32.080Z,19.47
2022-10-22T09:11:13.725Z,18.20
2022-10-22T09:13:41.715Z,19.63
2022-10-22T09:16:36.801Z,22.38
2022-10-22T09:19:28.526Z,18.95
2022-10-22T09:22:19.723Z,18.60
2022-10-22T09:24:48.597Z,18.63
2022-10-22T09:27:16.319Z,25.30
2022-10-22T09:29:44.177Z,19.67
2022-10-22T09:32:10.840Z,19.02
2022-10-22T09:34:37.385Z,18.13
2022-10-22T09:37:07.335Z,20.75
2022-10-22T09:39:54.890Z,22.85
2022-10-22T09:42:22.246Z,19.45
2022-10-22T09:44:58.003Z,19.80
2022-10-22T09:47:43.405Z,17.43
2022-10-22T09:50:28.693Z,19.17
2022-10-22T09:53:17.322Z,19.38
2022-10-22T09:55:44.426Z,20.55
2022-10-22T09:58:13.134Z,18.45
2022-10-22T10:00:40.967Z,16.90
2022-10-22T10:03:12.609Z,19.25
2022-10-22T10:05:41.218Z,25.38
2022-10-22T10:08:16.226Z,22.48
2022-10-22T10:10:47.713Z,21.75
2022-10-22T10:13:33.405Z,20.43
2022-10-22T10:16:18.991Z,22.35
2022-10-22T10:19:09.728Z,21.00
2022-10-22T10:21:42.473Z,21.50
2022-10-22T10:24:24.410Z,20.48
2022-10-22T10:27:15.622Z,20.10
2022-10-22T10:29:47.909Z,26.30
2022-10-22T10:32:39.638Z,21.45
2022-10-22T10:35:28.093Z,18.67
2022-10-22T10:38:19.590Z,20.00
2022-10-22T10:41:31.370Z,21.13
2022-10-22T10:44:29.468Z,24.20
2022-10-22T10:47:26.194Z,21.85
2022-10-22T10:50:05.382Z,23.27
2022-10-22T10:52:41.807Z,21.73
2022-10-22T10:55:36.335Z,23.23
2022-10-22T10:58:14.474Z,22.05
2022-10-22T11:00:57.927Z,24.10
2022-10-22T11:03:41.514Z,28.52
2022-10-22T11:06:10.290Z,25.08
2022-10-22T11:08:45.383Z,20.63
2022-10-22T11:11:24.154Z,19.27
2022-10-22T11:13:59.306Z,19.52
2022-10-22T11:16:36.789Z,22.63
2022-10-22T11:19:10.063Z,19.90
2022-10-22T11:22:05.006Z,24.93
2022-10-22T11:24:39.581Z,24.17
2022-10-22T11:27:18.343Z,22.30
2022-10-22T11:29:52.449Z,22.83
2022-10-22T11:32:21.309Z,21.35
2022-10-22T11:34:50.958Z,25.87
2022-10-22T11:37:18.931Z,24.65
2022-10-22T11:39:50.043Z,21.73
2022-10-22T11:42:46.771Z,20.80
2022-10-22T11:45:13.178Z,21.95
2022-10-22T11:48:14.973Z,22.97
2022-10-22T11:50:41.374Z,25.80
2022-10-22T11:53:13.928Z,22.85
2022-10-22T11:55:46.437Z,23.45
2022-10-22T11:58:30.500Z,24.48
2022-10-22T12:01:03.025Z,22.67
2022-10-22T12:03:32.407Z,23.55
2022-10-22T12:06:05.003Z,23.40
2022-10-22T12:08:32.809Z,23.73
2022-10-22T12:11:11.885Z,24.00
2022-10-22T12:14:02.948Z,26.73
2022-10-22T12:16:50.927Z,23.63
2022-10-22T12:19:32.621Z,28.08
2022-10-22T12:22:08.906Z,25.00
2022-10-22T12:24:38.396Z,23.58
2022-10-22T12:27:08.230Z,24.23
2022-10-22T12:29:35.127Z,22.42
2022-10-22T12:32:04.640Z,22.58
2022-10-22T12:34:31.069Z,23.58
2022-10-22T12:36:57.584Z,20.30
2022-10-22T12:39:27.868Z,21.63
2022-10-22T12:41:55.158Z,20.90
